createdAt,value
2019-04-20T00:01:07.445Z,7.07
2019-04-20T00:03:42.367Z,7.00
2019-04-20T00:06:11.149Z,7.53
2019-04-20T00:08:43.121Z,6.97
2019-04-20T00:11:21.868Z,7.10
2019-04-20T00:13:55.225Z,6.90
2019-04-20T00:16:18.913Z,6.97
2019-04-20T00:18:53.937Z,7.10
2019-04-20T00:21:47.339Z,6.63
2019-04-20T00:24:21.724Z,7.73
2019-04-20T00:29:41.100Z,6.80
2019-04-20T00:32:04.190Z,7.10
2019-04-20T00:34:31.518Z,7.23
2019-04-20T00:36:58.129Z,7.07
2019-04-20T00:39:29.853Z,6.70
2019-04-20T00:42:06.165Z,6.93
2019-04-20T00:44:36.213Z,7.20
2019-04-20T00:47:15.913Z,9.70
2019-04-20T00:49:53.283Z,7.10
2019-04-20T00:52:27.435Z,7.07
2019-04-20T00:54:45.333Z,7.07
2019-04-20T00:57:27.998Z,7.40
2019-04-20T01:00:21.688Z,7.47
2019-04-20T01:02:34.880Z,7.43
2019-04-20T01:05:15.201Z,7.60
2019-04-20T01:07:55.078Z,8.30
2019-04-20T01:10:22.038Z,8.50
2019-04-20T01:13:01.213Z,8.20
2019-04-20T01:15:35.243Z,8.77
2019-04-20T01:17:57.025Z,9.23
2019-04-20T01:20:27.969Z,9.07
2019-04-20T01:23:04.569Z,9.00
2019-04-20T01:25:35.277Z,9.23
2019-04-20T01:28:19.288Z,9.43
2019-04-20T01:30:42.467Z,9.17
2019-04-20T01:33:22.623Z,9.67
2019-04-20T01:35:53.443Z,10.47
2019-04-20T01:38:29.375Z,13.73
2019-04-20T01:40:44.383Z,10.50
2019-04-20T01:43:16.240Z,9.10
2019-04-20T01:46:01.341Z,9.73
2019-04-20T01:48:33.509Z,10.50
2019-04-20T01:51:11.821Z,10.53
2019-04-20T01:53:56.820Z,10.27
2019-04-20T01:56:31.445Z,10.93
2019-04-20T01:59:19.562Z,11.70
2019-04-20T02:02:18.397Z,11.23
2019-04-20T02:05:11.540Z,10.97
2019-04-20T02:07:42.282Z,10.17
2019-04-20T02:10:40.387Z,10.07
2019-04-20T02:16:14.512Z,10.17
2019-04-20T02:19:06.598Z,10.37
2019-04-20T02:22:04.099Z,11.07
2019-04-20T02:24:29.935Z,10.20
2019-04-20T02:27:14.667Z,15.40
2019-04-20T02:30:25.231Z,11.33
2019-04-20T02:33:16.642Z,10.10
2019-04-20T02:36:38.203Z,10.47
2019-04-20T02:44:27.182Z,9.80
2019-04-20T02:46:51.053Z,9.00
2019-04-20T02:54:52.408Z,13.00
2019-04-20T02:57:12.200Z,9.37
2019-04-20T02:59:59.692Z,9.23
2019-04-20T03:02:18.467Z,10.20
2019-04-20T03:05:13.343Z,8.77
2019-04-20T03:07:53.390Z,9.37
2019-04-20T03:10:47.334Z,9.30
2019-04-20T03:13:45.629Z,9.33
2019-04-20T03:16:50.394Z,9.53
2019-04-20T03:19:25.097Z,12.80
2019-04-20T03:22:45.574Z,9.60
2019-04-20T03:25:15.204Z,9.70
2019-04-20T03:28:05.443Z,8.60
2019-04-20T03:31:24.983Z,9.50
2019-04-20T03:33:51.359Z,9.07
2019-04-20T03:36:25.939Z,8.93
2019-04-20T03:38:47.904Z,11.57
2019-04-20T03:41:41.987Z,9.30
2019-04-20T03:44:24.405Z,9.67
2019-04-20T03:46:59.728Z,9.20
2019-04-20T03:50:02.968Z,9.47
2019-04-20T03:53:02.791Z,9.30
2019-04-20T03:55:40.798Z,9.90
2019-04-20T03:58:29.239Z,8.77
2019-04-20T04:02:16.624Z,8.97
2019-04-20T04:04:56.318Z,9.80
2019-04-20T04:07:19.561Z,9.50
2019-04-20T04:10:28.329Z,10.67
2019-04-20T04:13:23.403Z,10.07
2019-04-20T04:15:59.292Z,10.73
2019-04-20T04:18:33.296Z,14.40
2019-04-20T04:21:07.943Z,9.57
2019-04-20T04:23:49.098Z,9.90
2019-04-20T04:26:26.108Z,10.13
2019-04-20T04:28:56.215Z,10.67
2019-04-20T04:31:57.722Z,15.70
2019-04-20T04:34:31.025Z,10.83
2019-04-20T04:37:13.215Z,10.73
2019-04-20T04:39:56.319Z,10.57
2019-04-20T04:42:30.401Z,13.97
2019-04-20T04:44:48.393Z,10.13
2019-04-20T04:47:13.378Z,10.50
2019-04-20T04:49:48.450Z,11.10
2019-04-20T04:52:19.208Z,11.10
2019-04-20T04:54:56.635Z,11.03
2019-04-20T04:57:28.530Z,9.97
2019-04-20T04:59:59.435Z,10.80
2019-04-20T05:02:40.468Z,10.80
2019-04-20T05:05:49.382Z,11.23
2019-04-20T05:08:10.169Z,10.80
2019-04-20T05:10:33.402Z,10.73
2019-04-20T05:13:26.765Z,15.40
2019-04-20T05:16:07.603Z,11.10
2019-04-20T05:18:51.170Z,11.00
2019-04-20T05:21:56.882Z,10.53
2019-04-20T05:24:59.434Z,11.33
2019-04-20T05:27:36.408Z,10.93
2019-04-20T05:29:44.863Z,10.57
2019-04-20T05:32:24.741Z,10.83
2019-04-20T05:35:11.121Z,11.47
2019-04-20T05:38:06.810Z,11.33
2019-04-20T05:40:59.519Z,11.03
2019-04-20T05:44:04.710Z,11.20
2019-04-20T05:46:43.042Z,11.37
2019-04-20T05:49:18.940Z,10.73
2019-04-20T05:51:44.324Z,11.10
2019-04-20T05:54:23.337Z,10.70
2019-04-20T05:56:50.119Z,10.63
2019-04-20T05:59:23.501Z,10.67
2019-04-20T06:02:13.823Z,10.20
2019-04-20T06:04:55.922Z,10.17
2019-04-20T06:07:15.514Z,10.33
2019-04-20T06:09:47.683Z,9.27
2019-04-20T06:12:19.847Z,9.70
2019-04-20T06:15:19.923Z,9.60
2019-04-20T06:18:07.051Z,10.50
2019-04-20T06:21:07.855Z,9.97
2019-04-20T06:26:39.980Z,9.30
2019-04-20T06:28:52.958Z,9.23
2019-04-20T06:31:35.672Z,10.17
2019-04-20T06:34:51.323Z,9.70
2019-04-20T06:38:06.523Z,9.50
2019-04-20T06:40:46.878Z,9.40
2019-04-20T06:43:04.095Z,10.33
2019-04-20T06:45:46.017Z,10.33
2019-04-20T06:49:05.710Z,9.73
2019-04-20T06:51:40.798Z,10.03
2019-04-20T06:54:48.691Z,10.53
2019-04-20T06:57:30.238Z,14.03
2019-04-20T07:00:30.874Z,11.20
2019-04-20T07:03:05.758Z,10.67
2019-04-20T07:05:47.831Z,11.00
2019-04-20T07:08:33.156Z,12.93
2019-04-20T07:11:29.359Z,11.37
2019-04-20T07:14:01.311Z,12.30
2019-04-20T07:17:53.379Z,12.30
2019-04-20T07:21:41.782Z,12.90
2019-04-20T07:24:14.186Z,11.83
2019-04-20T07:26:49.275Z,12.70
2019-04-20T07:29:32.041Z,13.00
2019-04-20T07:32:20.350Z,11.83
2019-04-20T07:35:25.116Z,10.73
2019-04-20T07:38:18.264Z,11.53
2019-04-20T07:40:56.077Z,9.93
2019-04-20T07:43:30.011Z,11.60
2019-04-20T07:46:59.849Z,10.67
2019-04-20T07:49:52.372Z,10.63
2019-04-20T07:52:04.374Z,10.60
2019-04-20T07:55:21.589Z,10.07
2019-04-20T07:57:39.392Z,10.70
2019-04-20T08:01:05.971Z,11.60
2019-04-20T08:04:06.674Z,11.20
2019-04-20T08:06:37.875Z,11.37
2019-04-20T08:09:42.328Z,10.40
2019-04-20T08:12:58.404Z,12.50
2019-04-20T08:15:42.719Z,12.00
2019-04-20T08:18:10.357Z,11.93
2019-04-20T08:20:52.611Z,12.20
2019-04-20T08:23:23.094Z,11.70
2019-04-20T08:25:52.247Z,11.03
2019-04-20T08:28:39.128Z,11.70
2019-04-20T08:32:04.383Z,10.50
2019-04-20T08:34:41.890Z,10.47
2019-04-20T08:37:32.952Z,10.60
2019-04-20T08:40:34.224Z,10.63
2019-04-20T08:43:24.001Z,10.37
2019-04-20T08:46:23.448Z,10.63
2019-04-20T08:49:25.360Z,10.60
2019-04-20T08:52:48.337Z,11.90
2019-04-20T08:55:10.511Z,10.90
2019-04-20T08:57:42.469Z,11.60
2019-04-20T09:00:18.247Z,11.43
2019-04-20T09:03:19.373Z,11.97
2019-04-20T09:06:09.848Z,10.60
2019-04-20T09:09:37.586Z,10.60
2019-04-20T09:12:06.149Z,10.77
2019-04-20T09:14:21.357Z,10.13
2019-04-20T09:17:07.964Z,10.90
2019-04-20T09:20:04.744Z,10.20
2019-04-20T09:23:28.054Z,10.50
2019-04-20T09:28:33.429Z,11.50
2019-04-20T09:31:21.388Z,11.03
2019-04-20T09:34:12.847Z,10.30
2019-04-20T09:37:11.530Z,11.53
2019-04-20T09:40:21.541Z,11.37
2019-04-20T09:43:02.342Z,11.37
2019-04-20T09:45:49.880Z,10.90
2019-04-20T09:48:54.722Z,11.90
2019-04-20T09:51:43.701Z,11.03
2019-04-20T09:54:34.460Z,11.97
2019-04-20T09:57:11.817Z,10.83
2019-04-20T09:59:57.276Z,11.60
2019-04-20T10:02:44.564Z,11.00
2019-04-20T10:05:20.750Z,11.87
2019-04-20T10:08:04.945Z,11.30
2019-04-20T10:10:43.855Z,11.23
2019-04-20T10:13:48.122Z,10.90
2019-04-20T10:16:23.846Z,11.10
2019-04-20T10:19:02.787Z,10.77
2019-04-20T10:21:53.170Z,10.70
2019-04-20T10:24:24.373Z,10.37
2019-04-20T10:27:08.488Z,10.40
2019-04-20T10:30:01.115Z,9.80
2019-04-20T10:33:31.370Z,10.00
2019-04-20T10:36:43.692Z,9.73
2019-04-20T10:39:56.570Z,9.60
2019-04-20T10:42:50.157Z,9.83
2019-04-20T10:45:46.806Z,8.50
2019-04-20T10:48:45.917Z,8.87
2019-04-20T10:51:37.828Z,9.20
2019-04-20T10:54:16.141Z,9.43
2019-04-20T10:57:17.421Z,9.90
2019-04-20T10:59:51.967Z,10.07
2019-04-20T11:03:01.683Z,9.77
2019-04-20T11:05:46.651Z,9.67
2019-04-20T11:08:22.411Z,9.60
2019-04-20T11:11:32.458Z,8.90
2019-04-20T11:14:24.253Z,9.53
2019-04-20T11:16:48.521Z,9.53
2019-04-20T11:19:33.965Z,9.90
2019-04-20T11:22:22.146Z,10.87
2019-04-20T11:24:52.673Z,9.67
2019-04-20T11:27:34.581Z,10.47
2019-04-20T11:30:05.760Z,9.10
2019-04-20T11:32:36.296Z,9.13
2019-04-20T11:35:27.812Z,8.77
2019-04-20T11:37:55.454Z,8.80
2019-04-20T11:41:02.728Z,8.80
2019-04-20T11:43:42.378Z,8.57
2019-04-20T11:46:32.444Z,8.90
2019-04-20T11:49:33.795Z,8.80
2019-04-20T11:52:28.196Z,9.10
2019-04-20T11:55:06.398Z,9.37
2019-04-20T11:57:43.154Z,8.50
2019-04-20T12:00:44.308Z,8.77
2019-04-20T12:04:00.346Z,8.70
2019-04-20T12:06:43.406Z,11.37
2019-04-20T12:09:14.910Z,9.67
2019-04-20T12:12:34.939Z,8.80
2019-04-20T12:14:56.794Z,8.60
2019-04-20T12:17:33.489Z,8.20
2019-04-20T12:20:30.746Z,8.73
2019-04-20T12:23:06.454Z,10.17
2019-04-20T12:25:59.841Z,8.37
2019-04-20T12:28:38.386Z,8.63
2019-04-20T12:31:16.518Z,8.67
2019-04-20T12:34:04.347Z,8.33
2019-04-20T12:36:37.661Z,8.40
2019-04-20T12:39:11.100Z,8.90
2019-04-20T12:42:25.401Z,8.93
2019-04-20T12:44:59.669Z,8.97
2019-04-20T12:48:25.687Z,8.77
2019-04-20T12:51:15.631Z,8.40
2019-04-20T12:53:46.651Z,7.90
2019-04-20T12:56:40.362Z,7.80
2019-04-20T13:00:05.693Z,8.00
2019-04-20T13:03:17.404Z,8.93
2019-04-20T13:06:19.749Z,7.83
2019-04-20T13:09:18.750Z,8.87
2019-04-20T13:12:05.264Z,8.80
2019-04-20T13:15:28.778Z,8.57
2019-04-20T13:18:07.527Z,8.10
2019-04-20T13:20:38.078Z,8.27
2019-04-20T13:23:20.194Z,8.13
2019-04-20T13:25:50.865Z,8.80
2019-04-20T13:28:26.324Z,9.37
2019-04-20T13:31:31.639Z,8.60
2019-04-20T13:34:13.307Z,9.17
2019-04-20T13:37:13.819Z,9.53
2019-04-20T13:40:23.909Z,9.70
2019-04-20T13:43:07.908Z,9.00
2019-04-20T13:45:57.574Z,8.67
2019-04-20T13:48:33.081Z,8.60
2019-04-20T13:51:05.880Z,8.60
2019-04-20T13:53:41.045Z,8.30
2019-04-20T13:56:35.363Z,8.27
2019-04-20T13:59:40.264Z,8.60
2019-04-20T14:02:58.498Z,8.17
2019-04-20T14:05:48.766Z,8.70
2019-04-20T14:09:01.181Z,8.67
2019-04-20T14:11:39.578Z,8.07
2019-04-20T14:14:15.337Z,7.80
2019-04-20T14:17:26.464Z,8.10
2019-04-20T14:20:13.350Z,8.67
2019-04-20T14:23:03.315Z,8.33
2019-04-20T14:25:36.493Z,8.23
2019-04-20T14:28:23.018Z,7.53
2019-04-20T14:31:14.108Z,7.30
2019-04-20T14:33:59.070Z,8.00
2019-04-20T14:36:50.898Z,8.50
2019-04-20T14:39:40.835Z,9.37
2019-04-20T14:42:39.295Z,9.03
2019-04-20T14:45:25.002Z,8.67
2019-04-20T14:48:01.908Z,8.50
2019-04-20T14:50:33.817Z,8.60
2019-04-20T14:53:05.273Z,8.00
2019-04-20T14:55:39.581Z,8.43
2019-04-20T14:58:29.246Z,8.30
2019-04-20T15:01:04.789Z,7.67
2019-04-20T15:03:38.645Z,8.77
2019-04-20T15:06:09.890Z,8.17
2019-04-20T15:08:40.793Z,9.00
2019-04-20T15:11:12.702Z,9.27
2019-04-20T15:13:46.739Z,9.03
2019-04-20T15:16:17.280Z,8.77
2019-04-20T15:18:55.178Z,8.23
2019-04-20T15:21:27.216Z,8.87
2019-04-20T15:23:57.734Z,8.20
2019-04-20T15:26:30.737Z,8.40
2019-04-20T15:29:02.156Z,8.70
2019-04-20T15:31:34.191Z,8.60
2019-04-20T15:34:06.885Z,8.20
2019-04-20T15:36:38.121Z,7.97
2019-04-20T15:39:09.419Z,8.63
2019-04-20T15:41:41.047Z,8.57
2019-04-20T15:44:11.610Z,8.70
2019-04-20T15:46:43.421Z,8.63
2019-04-20T15:49:14.008Z,8.63
2019-04-20T15:51:46.049Z,8.00
2019-04-20T15:54:17.836Z,8.27
2019-04-20T15:56:56.084Z,7.90
2019-04-20T15:59:20.662Z,8.33
2019-04-20T16:01:55.600Z,8.97
2019-04-20T16:04:45.366Z,9.47
2019-04-20T16:07:17.081Z,8.93
2019-04-20T16:09:48.492Z,9.13
2019-04-20T16:12:20.713Z,8.37
2019-04-20T16:14:51.747Z,9.07
2019-04-20T16:17:25.181Z,8.77
2019-04-20T16:20:01.372Z,8.27
2019-04-20T16:22:28.893Z,8.73
2019-04-20T16:25:05.529Z,9.07
2019-04-20T16:27:39.748Z,8.40
2019-04-20T16:30:11.649Z,8.60
2019-04-20T16:32:42.727Z,8.47
2019-04-20T16:35:14.138Z,7.43
2019-04-20T16:37:44.699Z,9.13
2019-04-20T16:40:15.706Z,8.70
2019-04-20T16:42:46.201Z,8.50
2019-04-20T16:45:17.297Z,8.23
2019-04-20T16:47:48.211Z,9.53
2019-04-20T16:50:19.345Z,9.30
2019-04-20T16:52:50.815Z,8.53
2019-04-20T16:55:22.881Z,7.97
2019-04-20T16:57:55.537Z,8.30
2019-04-20T17:00:29.452Z,7.63
2019-04-20T17:03:02.597Z,8.43
2019-04-20T17:05:37.023Z,7.53
2019-04-20T17:08:08.955Z,7.87
2019-04-20T17:10:41.555Z,8.07
2019-04-20T17:13:12.003Z,7.60
2019-04-20T17:15:43.436Z,8.30
2019-04-20T17:18:17.251Z,7.40
2019-04-20T17:20:50.603Z,6.87
2019-04-20T17:23:25.370Z,7.67
2019-04-20T17:25:57.913Z,7.47
2019-04-20T17:28:46.937Z,7.93
2019-04-20T17:31:37.764Z,7.40
2019-04-20T17:34:31.545Z,7.80
2019-04-20T17:36:50.488Z,7.50
2019-04-20T17:39:31.048Z,7.27
2019-04-20T17:42:07.464Z,7.43
2019-04-20T17:44:41.341Z,7.50
2019-04-20T17:47:21.663Z,7.03
2019-04-20T17:49:58.865Z,6.97
2019-04-20T17:52:37.323Z,6.83
2019-04-20T17:55:01.785Z,7.50
2019-04-20T17:57:33.202Z,7.60
2019-04-20T18:00:20.706Z,7.13
2019-04-20T18:03:09.968Z,7.20
2019-04-20T18:05:59.513Z,6.70
2019-04-20T18:08:35.969Z,6.97
2019-04-20T18:11:02.067Z,6.80
2019-04-20T18:13:29.140Z,6.70
2019-04-20T18:16:23.507Z,7.03
2019-04-20T18:18:58.527Z,6.97
2019-04-20T18:21:32.923Z,7.00
2019-04-20T18:24:16.473Z,7.60
2019-04-20T18:27:03.131Z,6.87
2019-04-20T18:29:40.982Z,6.93
2019-04-20T18:32:05.143Z,7.37
2019-04-20T18:34:44.964Z,7.40
2019-04-20T18:37:21.471Z,7.27
2019-04-20T18:39:58.790Z,9.23
2019-04-20T18:42:30.388Z,7.10
2019-04-20T18:45:17.392Z,7.27
2019-04-20T18:47:50.896Z,7.90
2019-04-20T18:50:16.563Z,8.73
2019-04-20T18:52:38.306Z,8.87
2019-04-20T18:55:16.316Z,8.57
2019-04-20T18:57:43.409Z,8.27
2019-04-20T19:00:24.350Z,8.77
2019-04-20T19:03:08.599Z,9.63
2019-04-20T19:05:31.693Z,9.93
2019-04-20T19:08:08.438Z,10.37
2019-04-20T19:10:39.616Z,9.70
2019-04-20T19:13:22.372Z,10.23
2019-04-20T19:16:17.209Z,10.47
2019-04-20T19:18:58.445Z,10.10
2019-04-20T19:21:19.557Z,10.97
2019-04-20T19:23:59.266Z,11.10
2019-04-20T19:26:24.950Z,11.47
2019-04-20T19:29:03.419Z,10.07
2019-04-20T19:31:42.648Z,9.77
2019-04-20T19:34:18.581Z,9.97
2019-04-20T19:36:38.903Z,9.83
2019-04-20T19:39:22.267Z,10.23
2019-04-20T19:41:48.994Z,10.47
2019-04-20T19:44:21.323Z,10.93
2019-04-20T19:47:05.301Z,10.30
2019-04-20T19:49:32.691Z,11.37
2019-04-20T19:52:25.235Z,14.30
2019-04-20T19:54:46.618Z,15.23
2019-04-20T19:57:16.290Z,18.50
2019-04-20T19:59:39.852Z,19.43
2019-04-20T20:02:07.714Z,20.47
2019-04-20T20:04:48.209Z,16.80
2019-04-20T20:07:22.262Z,16.20
2019-04-20T20:09:49.753Z,13.57
2019-04-20T20:12:21.092Z,13.83
2019-04-20T20:14:51.472Z,13.67
2019-04-20T20:17:45.649Z,14.10
2019-04-20T20:20:23.018Z,14.77
2019-04-20T20:22:35.437Z,14.90
2019-04-20T20:25:03.152Z,15.47
2019-04-20T20:27:45.585Z,15.83
2019-04-20T20:30:15.100Z,15.50
2019-04-20T20:32:56.823Z,16.23
2019-04-20T20:35:16.687Z,15.93
2019-04-20T20:37:51.422Z,16.77
2019-04-20T20:40:27.372Z,17.87
2019-04-20T20:43:20.710Z,16.23
2019-04-20T20:46:01.197Z,17.07
2019-04-20T20:48:55.609Z,17.07
2019-04-20T20:51:23.313Z,19.00
2019-04-20T20:54:04.793Z,18.33
2019-04-20T20:56:34.113Z,18.23
2019-04-20T20:59:09.500Z,19.60
2019-04-20T21:01:44.265Z,19.63
2019-04-20T21:04:07.117Z,18.83
2019-04-20T21:06:37.833Z,17.30
2019-04-20T21:09:14.446Z,17.90
2019-04-20T21:11:46.247Z,20.10
2019-04-20T21:14:22.003Z,15.77
2019-04-20T21:17:00.318Z,14.93
2019-04-20T21:19:45.453Z,14.90
2019-04-20T21:22:04.875Z,14.90
2019-04-20T21:24:35.823Z,14.47
2019-04-20T21:27:13.327Z,14.83
2019-04-20T21:29:47.268Z,14.43
2019-04-20T21:32:19.717Z,14.67
2019-04-20T21:34:55.687Z,14.27
2019-04-20T21:37:25.354Z,14.60
2019-04-20T21:39:59.702Z,15.60
2019-04-20T21:42:30.114Z,14.93
2019-04-20T21:45:06.985Z,15.13
2019-04-20T21:47:36.317Z,15.50
2019-04-20T21:50:23.051Z,14.83
2019-04-20T21:52:43.069Z,16.03
2019-04-20T21:55:10.192Z,15.07
2019-04-20T21:57:46.220Z,16.13
2019-04-20T22:00:35.090Z,14.93
2019-04-20T22:03:07.414Z,15.50
2019-04-20T22:05:36.163Z,16.37
2019-04-20T22:08:10.580Z,15.57
2019-04-20T22:10:39.018Z,16.57
2019-04-20T22:13:09.933Z,16.17
2019-04-20T22:15:49.228Z,14.93
2019-04-20T22:18:18.068Z,13.67
2019-04-20T22:20:57.710Z,13.47
2019-04-20T22:23:36.533Z,14.00
2019-04-20T22:26:03.119Z,14.00
2019-04-20T22:28:22.272Z,14.47
2019-04-20T22:30:53.893Z,14.13
2019-04-20T22:33:36.711Z,13.87
2019-04-20T22:36:09.173Z,13.63
2019-04-20T22:39:07.585Z,13.87
2019-04-20T22:41:52.430Z,14.30
2019-04-20T22:44:21.361Z,13.43
2019-04-20T22:46:52.179Z,14.00
2019-04-20T22:49:42.066Z,13.43
2019-04-20T22:52:05.276Z,13.30
2019-04-20T22:54:42.297Z,13.90
2019-04-20T22:57:11.896Z,14.63
2019-04-20T22:59:44.695Z,15.07
2019-04-20T23:02:09.437Z,14.27
2019-04-20T23:04:40.217Z,13.50
2019-04-20T23:07:10.964Z,12.80
2019-04-20T23:09:48.647Z,13.80
2019-04-20T23:12:18.859Z,15.27
2019-04-20T23:14:46.585Z,13.60
2019-04-20T23:17:24.522Z,13.07
2019-04-20T23:19:55.653Z,13.87
2019-04-20T23:22:23.062Z,14.93
2019-04-20T23:24:53.628Z,13.67
2019-04-20T23:27:29.362Z,13.80
2019-04-20T23:29:58.347Z,13.80
2019-04-20T23:32:30.304Z,14.23
2019-04-20T23:35:08.591Z,14.03
2019-04-20T23:37:38.543Z,13.83
2019-04-20T23:40:10.984Z,14.20
2019-04-20T23:42:45.951Z,13.63
2019-04-20T23:45:50.859Z,18.23
2019-04-20T23:48:38.832Z,14.07
2019-04-20T23:51:29.944Z,13.30
2019-04-20T23:53:51.174Z,13.27
2019-04-20T23:56:13.413Z,13.00
2019-04-20T23:58:47.500Z,12.87
